createdAt,value
2022-09-09T00:00:56.212Z,1.30
2022-09-09T00:03:31.484Z,1.30
2022-09-09T00:06:24.223Z,1.32
2022-09-09T00:09:16.714Z,2.05
2022-09-09T00:12:11.207Z,1.10
2022-09-09T00:14:55.151Z,1.50
2022-09-09T00:17:49.322Z,1.00
2022-09-09T00:20:36.284Z,1.20
2022-09-09T00:23:29.009Z,1.52
2022-09-09T00:26:23.685Z,2.00
2022-09-09T00:28:58.570Z,1.00
2022-09-09T00:31:32.611Z,1.50
2022-09-09T00:34:19.701Z,1.40
2022-09-09T00:36:54.147Z,1.60
2022-09-09T00:42:19.767Z,1.27
2022-09-09T00:44:54.996Z,1.50
2022-09-09T00:47:48.338Z,1.80
2022-09-09T00:50:25.969Z,1.72
2022-09-09T00:53:10.562Z,1.70
2022-09-09T00:56:06.328Z,1.60
2022-09-09T00:58:38.259Z,1.75
2022-09-09T01:01:15.052Z,1.80
2022-09-09T01:03:59.250Z,1.62
2022-09-09T01:06:37.992Z,1.40
2022-09-09T01:09:22.200Z,1.60
2022-09-09T01:12:09.088Z,1.62
2022-09-09T01:14:45.413Z,1.50
2022-09-09T01:17:21.988Z,1.20
2022-09-09T01:20:10.641Z,1.57
2022-09-09T01:22:56.287Z,1.40
2022-09-09T01:25:50.393Z,1.20
2022-09-09T01:28:26.773Z,1.70
2022-09-09T01:31:00.821Z,1.50
2022-09-09T01:33:34.344Z,1.57
2022-09-09T01:36:12.215Z,1.40
2022-09-09T01:38:51.682Z,1.30
2022-09-09T01:41:24.003Z,1.20
2022-09-09T01:43:59.140Z,1.65
2022-09-09T01:46:32.445Z,1.50
2022-09-09T01:49:08.223Z,1.57
2022-09-09T01:51:43.352Z,1.70
2022-09-09T01:54:17.028Z,1.72
2022-09-09T01:57:07.017Z,1.47
2022-09-09T01:59:57.123Z,1.50
2022-09-09T02:02:34.944Z,1.50
2022-09-09T02:05:26.414Z,1.70
2022-09-09T02:08:01.859Z,1.22
2022-09-09T02:10:45.037Z,3.45
2022-09-09T02:13:21.944Z,1.80
2022-09-09T02:16:22.091Z,1.67
2022-09-09T02:19:14.137Z,1.52
2022-09-09T02:21:48.864Z,1.98
2022-09-09T02:24:21.117Z,2.20
2022-09-09T02:26:58.048Z,2.10
2022-09-09T02:29:39.383Z,2.55
2022-09-09T02:32:17.285Z,3.20
2022-09-09T02:34:52.323Z,3.10
2022-09-09T02:37:28.778Z,3.30
2022-09-09T02:40:01.198Z,2.92
2022-09-09T02:42:34.506Z,3.45
2022-09-09T02:45:07.334Z,3.10
2022-09-09T02:47:57.573Z,3.02
2022-09-09T02:50:34.808Z,2.87
2022-09-09T02:53:22.047Z,2.47
2022-09-09T02:56:07.843Z,3.10
2022-09-09T02:58:41.771Z,2.92
2022-09-09T03:01:15.241Z,2.75
2022-09-09T03:03:47.607Z,2.65
2022-09-09T03:06:20.976Z,2.40
2022-09-09T03:08:54.802Z,2.93
2022-09-09T03:11:29.114Z,2.87
2022-09-09T03:14:02.440Z,2.58
2022-09-09T03:16:36.110Z,2.72
2022-09-09T03:19:08.126Z,2.92
2022-09-09T03:21:40.264Z,2.80
2022-09-09T03:24:12.230Z,2.90
2022-09-09T03:26:45.856Z,3.17
2022-09-09T03:29:20.087Z,3.40
2022-09-09T03:31:52.273Z,2.70
2022-09-09T03:34:25.158Z,2.85
2022-09-09T03:36:57.206Z,2.37
2022-09-09T03:39:30.406Z,3.65
2022-09-09T03:42:06.768Z,2.92
2022-09-09T03:44:39.038Z,3.00
2022-09-09T03:47:11.031Z,3.55
2022-09-09T03:49:43.358Z,3.33
2022-09-09T03:52:15.610Z,3.60
2022-09-09T03:54:48.017Z,3.50
2022-09-09T03:57:21.045Z,3.05
2022-09-09T03:59:53.423Z,2.42
2022-09-09T04:02:26.007Z,3.10
2022-09-09T04:04:58.179Z,2.72
2022-09-09T04:07:30.188Z,2.95
2022-09-09T04:10:02.766Z,3.40
2022-09-09T04:12:35.842Z,2.65
2022-09-09T04:15:08.532Z,2.85
2022-09-09T04:17:40.781Z,2.80
2022-09-09T04:20:13.237Z,2.25
2022-09-09T04:22:45.375Z,2.77
2022-09-09T04:25:17.350Z,2.20
2022-09-09T04:27:51.003Z,1.42
2022-09-09T04:30:23.731Z,1.80
2022-09-09T04:32:55.911Z,2.08
2022-09-09T04:35:28.400Z,1.85
2022-09-09T04:38:00.867Z,2.25
2022-09-09T04:40:34.313Z,1.90
2022-09-09T04:43:08.310Z,1.72
2022-09-09T04:45:41.770Z,1.67
2022-09-09T04:48:13.971Z,1.92
2022-09-09T04:50:48.681Z,1.82
2022-09-09T04:53:20.733Z,1.20
2022-09-09T04:55:53.767Z,1.37
2022-09-09T04:58:26.429Z,1.42
2022-09-09T05:01:08.469Z,1.42
2022-09-09T05:03:41.386Z,2.42
2022-09-09T05:06:20.591Z,1.30
2022-09-09T05:08:54.662Z,1.57
2022-09-09T05:11:31.074Z,1.40
2022-09-09T05:14:05.515Z,1.92
2022-09-09T05:16:37.813Z,1.52
2022-09-09T05:19:10.245Z,1.75
2022-09-09T05:21:47.406Z,1.02
2022-09-09T05:24:21.074Z,1.20
2022-09-09T05:26:54.111Z,1.00
2022-09-09T05:29:27.026Z,1.20
2022-09-09T05:32:00.394Z,1.27
2022-09-09T05:34:33.071Z,1.50
2022-09-09T05:37:05.622Z,1.45
2022-09-09T05:39:40.363Z,1.60
2022-09-09T05:42:12.925Z,1.30
2022-09-09T05:44:46.121Z,1.70
2022-09-09T05:47:18.345Z,1.00
2022-09-09T05:49:50.621Z,1.45
2022-09-09T05:52:23.718Z,1.20
2022-09-09T05:54:58.271Z,1.05
2022-09-09T05:57:30.523Z,1.30
2022-09-09T06:00:03.894Z,1.37
2022-09-09T06:02:39.207Z,1.25
2022-09-09T06:05:12.050Z,0.80
2022-09-09T06:07:45.872Z,1.32
2022-09-09T06:10:18.439Z,1.00
2022-09-09T06:12:51.163Z,1.05
2022-09-09T06:15:23.321Z,1.12
2022-09-09T06:17:58.413Z,1.10
2022-09-09T06:20:32.135Z,1.32
2022-09-09T06:23:06.359Z,0.93
2022-09-09T06:25:40.262Z,1.20
2022-09-09T06:28:13.169Z,1.02
2022-09-09T06:30:45.739Z,2.33
2022-09-09T06:33:18.175Z,1.37
2022-09-09T06:35:58.245Z,1.10
2022-09-09T06:38:31.333Z,0.72
2022-09-09T06:41:03.471Z,0.65
2022-09-09T06:43:36.309Z,0.50
2022-09-09T06:46:12.520Z,0.72
2022-09-09T06:48:46.616Z,0.60
2022-09-09T06:51:25.583Z,0.70
2022-09-09T06:53:59.531Z,0.80
2022-09-09T06:56:35.285Z,0.78
2022-09-09T06:59:10.426Z,0.85
2022-09-09T07:01:55.617Z,1.20
2022-09-09T07:04:27.411Z,0.88
2022-09-09T07:07:00.032Z,1.40
2022-09-09T07:09:32.931Z,0.60
2022-09-09T07:12:06.959Z,0.98
2022-09-09T07:14:40.655Z,0.80
2022-09-09T07:17:13.159Z,0.57
2022-09-09T07:19:46.052Z,1.40
2022-09-09T07:22:21.331Z,1.32
2022-09-09T07:24:53.282Z,0.82
2022-09-09T07:27:25.523Z,1.57
2022-09-09T07:29:59.045Z,1.10
2022-09-09T07:32:33.025Z,0.60
2022-09-09T07:35:05.692Z,0.60
2022-09-09T07:37:39.519Z,0.78
2022-09-09T07:40:12.387Z,1.00
2022-09-09T07:42:44.715Z,1.47
2022-09-09T07:45:17.372Z,0.72
2022-09-09T07:47:50.161Z,0.70
2022-09-09T07:50:22.944Z,1.50
2022-09-09T07:52:57.611Z,1.00
2022-09-09T07:55:31.628Z,0.50
2022-09-09T07:58:04.039Z,1.00
2022-09-09T08:00:37.425Z,1.50
2022-09-09T08:03:09.815Z,0.80
2022-09-09T08:05:44.206Z,0.78
2022-09-09T08:08:17.722Z,0.75
2022-09-09T08:10:50.208Z,1.15
2022-09-09T08:13:22.187Z,0.75
2022-09-09T08:15:56.814Z,0.28
2022-09-09T08:18:29.518Z,1.37
2022-09-09T08:21:10.096Z,0.73
2022-09-09T08:23:47.143Z,0.60
2022-09-09T08:26:24.669Z,0.60
2022-09-09T08:28:59.197Z,0.90
2022-09-09T08:31:34.594Z,0.60
2022-09-09T08:34:10.017Z,0.55
2022-09-09T08:36:44.724Z,0.85
2022-09-09T08:39:20.051Z,0.60
2022-09-09T08:42:20.026Z,2.08
2022-09-09T08:45:01.703Z,1.30
2022-09-09T08:47:50.551Z,0.70
2022-09-09T08:50:26.226Z,0.68
2022-09-09T08:53:12.068Z,2.17
2022-09-09T08:55:56.737Z,0.65
2022-09-09T08:58:36.532Z,0.90
2022-09-09T09:01:22.326Z,1.30
2022-09-09T09:04:30.800Z,1.32
2022-09-09T09:07:32.100Z,1.25
2022-09-09T09:10:40.440Z,0.82
2022-09-09T09:12:57.463Z,0.68
2022-09-09T09:15:33.565Z,0.70
2022-09-09T09:18:06.940Z,0.93
2022-09-09T09:21:00.117Z,0.60
2022-09-09T09:23:41.074Z,0.70
2022-09-09T09:26:14.069Z,0.98
2022-09-09T09:28:48.255Z,0.95
2022-09-09T09:31:23.314Z,0.85
2022-09-09T09:33:57.219Z,1.75
2022-09-09T09:36:47.244Z,0.65
2022-09-09T09:42:06.666Z,0.72
2022-09-09T09:44:38.798Z,0.90
2022-09-09T09:47:18.318Z,0.60
2022-09-09T09:50:00.558Z,0.75
2022-09-09T09:52:36.939Z,1.00
2022-09-09T09:55:13.272Z,1.02
2022-09-09T09:57:46.873Z,1.15
2022-09-09T10:00:25.017Z,0.65
2022-09-09T10:03:03.166Z,0.60
2022-09-09T10:05:38.262Z,0.85
2022-09-09T10:08:18.995Z,0.50
2022-09-09T10:11:23.989Z,0.60
2022-09-09T10:14:20.260Z,0.57
2022-09-09T10:16:55.404Z,1.82
2022-09-09T10:19:30.454Z,1.10
2022-09-09T10:22:13.790Z,1.20
2022-09-09T10:25:07.598Z,1.00
2022-09-09T10:28:06.322Z,1.12
2022-09-09T10:31:08.299Z,1.85
2022-09-09T10:33:55.417Z,1.10
2022-09-09T10:36:28.861Z,1.00
2022-09-09T10:39:25.918Z,0.90
2022-09-09T10:42:18.484Z,1.02
2022-09-09T10:45:17.772Z,0.85
2022-09-09T10:47:52.786Z,1.10
2022-09-09T10:51:07.103Z,1.12
2022-09-09T10:53:30.748Z,1.15
2022-09-09T10:56:05.769Z,0.62
2022-09-09T10:58:40.821Z,0.40
2022-09-09T11:01:17.222Z,0.40
2022-09-09T11:03:52.761Z,1.10
2022-09-09T11:06:29.192Z,0.80
2022-09-09T11:09:04.261Z,1.07
2022-09-09T11:11:39.644Z,1.07
2022-09-09T11:14:37.498Z,1.22
2022-09-09T11:17:20.358Z,1.00
2022-09-09T11:19:52.932Z,1.50
2022-09-09T11:22:34.317Z,2.15
2022-09-09T11:25:27.748Z,1.60
2022-09-09T11:28:19.041Z,1.37
2022-09-09T11:31:21.497Z,1.85
2022-09-09T11:34:03.105Z,1.07
2022-09-09T11:36:47.169Z,1.02
2022-09-09T11:39:22.345Z,1.00
2022-09-09T11:41:55.273Z,0.80
2022-09-09T11:44:30.519Z,0.93
2022-09-09T11:47:02.953Z,0.70
2022-09-09T11:49:43.374Z,0.62
2022-09-09T11:52:27.893Z,0.90
2022-09-09T11:57:37.290Z,1.72
2022-09-09T12:00:11.624Z,1.00
2022-09-09T12:02:46.407Z,1.40
2022-09-09T12:05:21.196Z,2.52
2022-09-09T12:07:59.715Z,1.00
2022-09-09T12:10:40.614Z,1.37
2022-09-09T12:13:21.777Z,0.90
2022-09-09T12:15:59.330Z,1.22
2022-09-09T12:18:40.819Z,0.80
2022-09-09T12:21:34.615Z,1.10
2022-09-09T12:24:15.960Z,0.90
2022-09-09T12:27:03.383Z,1.00
2022-09-09T12:29:41.361Z,0.98
2022-09-09T12:32:16.411Z,1.50
2022-09-09T12:35:04.200Z,0.90
2022-09-09T12:37:44.894Z,0.90
2022-09-09T12:40:26.521Z,0.90
2022-09-09T12:42:59.966Z,0.95
2022-09-09T12:45:36.685Z,0.97
2022-09-09T12:48:13.052Z,0.90
2022-09-09T12:50:52.468Z,1.05
2022-09-09T12:53:33.506Z,1.02
2022-09-09T12:56:15.055Z,0.70
2022-09-09T12:58:52.711Z,1.70
2022-09-09T13:01:34.688Z,0.93
2022-09-09T13:04:20.958Z,0.70
2022-09-09T13:06:53.681Z,0.90
2022-09-09T13:09:26.261Z,0.65
2022-09-09T13:11:59.800Z,1.32
2022-09-09T13:14:35.949Z,0.65
2022-09-09T13:17:11.783Z,0.90
2022-09-09T13:19:47.784Z,1.72
2022-09-09T13:22:28.953Z,1.35
2022-09-09T13:25:13.035Z,0.75
2022-09-09T13:28:00.393Z,0.85
2022-09-09T13:30:40.337Z,0.90
2022-09-09T13:33:18.861Z,1.15
2022-09-09T13:36:03.920Z,0.98
2022-09-09T13:38:41.803Z,2.15
2022-09-09T13:41:15.802Z,0.70
2022-09-09T13:46:29.436Z,1.25
2022-09-09T13:49:03.952Z,0.90
2022-09-09T13:51:38.665Z,1.20
2022-09-09T13:54:16.011Z,1.50
2022-09-09T13:56:50.315Z,2.00
2022-09-09T13:59:22.689Z,0.60
2022-09-09T14:01:55.336Z,1.62
2022-09-09T14:04:27.532Z,1.45
2022-09-09T14:07:00.594Z,0.93
2022-09-09T14:09:32.837Z,1.45
2022-09-09T14:12:05.737Z,4.47
2022-09-09T14:14:38.197Z,1.50
2022-09-09T14:17:11.339Z,2.02
2022-09-09T14:19:44.378Z,1.15
2022-09-09T14:22:17.328Z,1.37
2022-09-09T14:24:50.596Z,1.50
2022-09-09T14:27:22.925Z,1.52
2022-09-09T14:29:55.616Z,1.92
2022-09-09T14:32:28.158Z,1.07
2022-09-09T14:35:00.446Z,1.30
2022-09-09T14:37:34.157Z,1.60
2022-09-09T14:40:08.551Z,1.27
2022-09-09T14:45:13.473Z,1.05
2022-09-09T14:47:46.176Z,0.68
2022-09-09T14:50:18.466Z,1.17
2022-09-09T14:52:51.765Z,1.70
2022-09-09T14:55:24.274Z,0.93
2022-09-09T14:57:56.889Z,0.75
2022-09-09T15:00:29.160Z,0.90
2022-09-09T15:03:01.784Z,0.75
2022-09-09T15:05:34.419Z,0.90
2022-09-09T15:08:06.818Z,0.98
2022-09-09T15:10:40.137Z,0.75
2022-09-09T15:13:13.101Z,0.80
2022-09-09T15:15:45.991Z,1.45
2022-09-09T15:18:18.132Z,1.00
2022-09-09T15:20:50.238Z,1.12
2022-09-09T15:23:22.622Z,1.30
2022-09-09T15:25:56.805Z,2.08
2022-09-09T15:28:29.309Z,1.10
2022-09-09T15:31:04.233Z,1.45
2022-09-09T15:33:40.445Z,1.30
2022-09-09T15:36:28.099Z,1.22
2022-09-09T15:39:02.120Z,0.90
2022-09-09T15:41:34.714Z,2.27
2022-09-09T15:44:07.451Z,1.82
2022-09-09T15:46:42.201Z,1.02
2022-09-09T15:49:17.074Z,1.12
2022-09-09T15:51:58.649Z,1.45
2022-09-09T15:54:44.128Z,1.20
2022-09-09T15:57:16.225Z,0.80
2022-09-09T15:59:49.318Z,1.90
2022-09-09T16:02:23.004Z,1.37
2022-09-09T16:04:55.556Z,1.12
2022-09-09T16:07:27.829Z,1.40
2022-09-09T16:10:00.013Z,1.52
2022-09-09T16:12:32.704Z,3.12
2022-09-09T16:15:05.139Z,2.10
2022-09-09T16:17:39.020Z,1.80
2022-09-09T16:20:12.932Z,1.55
2022-09-09T16:22:45.709Z,2.08
2022-09-09T16:25:19.576Z,1.77
2022-09-09T16:27:51.875Z,1.90
2022-09-09T16:30:26.640Z,1.35
2022-09-09T16:32:58.992Z,1.70
2022-09-09T16:35:31.147Z,1.50
2022-09-09T16:38:03.288Z,1.60
2022-09-09T16:40:37.536Z,1.32
2022-09-09T16:43:13.848Z,1.98
2022-09-09T16:45:47.215Z,2.05
2022-09-09T16:48:19.973Z,1.60
2022-09-09T16:50:52.188Z,2.37
2022-09-09T16:53:24.686Z,1.77
2022-09-09T16:55:57.580Z,1.65
2022-09-09T16:58:29.752Z,1.90
2022-09-09T17:01:06.081Z,1.77
2022-09-09T17:03:38.712Z,1.90
2022-09-09T17:06:17.250Z,2.20
2022-09-09T17:08:50.031Z,2.67
2022-09-09T17:11:23.226Z,2.50
2022-09-09T17:13:57.160Z,2.23
2022-09-09T17:16:31.878Z,4.12
2022-09-09T17:19:05.413Z,4.78
2022-09-09T17:21:54.715Z,4.08
2022-09-09T17:24:14.148Z,4.03
2022-09-09T17:26:46.563Z,3.87
2022-09-09T17:29:18.652Z,3.17
2022-09-09T17:31:50.659Z,2.50
2022-09-09T17:34:23.112Z,3.00
2022-09-09T17:36:55.756Z,3.35
2022-09-09T17:39:28.579Z,2.37
2022-09-09T17:42:01.095Z,2.98
2022-09-09T17:44:34.223Z,2.90
2022-09-09T17:47:07.362Z,2.95
2022-09-09T17:49:40.405Z,3.25
2022-09-09T17:52:13.639Z,2.77
2022-09-09T17:54:46.006Z,3.95
2022-09-09T17:57:20.758Z,2.92
2022-09-09T17:59:52.936Z,3.05
2022-09-09T18:02:26.193Z,3.15
2022-09-09T18:05:00.717Z,3.05
2022-09-09T18:07:34.098Z,3.25
2022-09-09T18:10:06.906Z,4.37
2022-09-09T18:12:40.435Z,2.90
2022-09-09T18:15:24.150Z,3.55
2022-09-09T18:17:49.081Z,2.70
2022-09-09T18:20:23.416Z,3.12
2022-09-09T18:22:55.924Z,2.80
2022-09-09T18:25:30.269Z,4.40
2022-09-09T18:28:02.222Z,3.87
2022-09-09T18:30:36.462Z,2.80
2022-09-09T18:33:11.301Z,3.65
2022-09-09T18:35:44.340Z,3.65
2022-09-09T18:38:17.908Z,3.70
2022-09-09T18:40:50.352Z,2.92
2022-09-09T18:43:22.846Z,2.15
2022-09-09T18:45:55.073Z,3.10
2022-09-09T18:48:28.730Z,2.95
2022-09-09T18:51:09.431Z,3.33
2022-09-09T18:53:43.153Z,3.42
2022-09-09T18:56:16.272Z,2.50
2022-09-09T18:58:50.280Z,3.85
2022-09-09T19:01:24.446Z,3.12
2022-09-09T19:03:59.839Z,2.95
2022-09-09T19:06:34.691Z,3.52
2022-09-09T19:09:08.091Z,2.92
2022-09-09T19:11:40.953Z,3.95
2022-09-09T19:14:15.645Z,3.60
2022-09-09T19:16:48.784Z,3.02
2022-09-09T19:19:23.767Z,4.40
2022-09-09T19:21:58.067Z,4.53
2022-09-09T19:24:32.833Z,4.17
2022-09-09T19:27:07.318Z,3.92
2022-09-09T19:29:39.997Z,3.65
2022-09-09T19:34:46.274Z,4.00
2022-09-09T19:37:18.855Z,4.10
2022-09-09T19:39:51.053Z,4.25
2022-09-09T19:42:23.462Z,4.30
2022-09-09T19:44:57.237Z,5.08
2022-09-09T19:47:29.292Z,4.60
2022-09-09T19:50:01.170Z,5.92
2022-09-09T19:52:33.424Z,4.72
2022-09-09T19:55:06.061Z,4.97
2022-09-09T19:57:38.188Z,5.45
2022-09-09T20:00:11.346Z,5.00
2022-09-09T20:03:02.711Z,5.40
2022-09-09T20:05:19.652Z,5.45
2022-09-09T20:08:09.056Z,5.67
2022-09-09T20:10:41.362Z,5.15
2022-09-09T20:13:14.357Z,5.37
2022-09-09T20:15:46.488Z,6.55
2022-09-09T20:18:18.636Z,5.55
2022-09-09T20:20:51.417Z,5.85
2022-09-09T20:23:23.508Z,6.05
2022-09-09T20:25:56.415Z,5.60
2022-09-09T20:28:29.680Z,7.95
2022-09-09T20:31:07.357Z,6.55
2022-09-09T20:33:39.827Z,5.78
2022-09-09T20:36:14.806Z,6.78
2022-09-09T20:38:50.439Z,5.87
2022-09-09T20:41:24.398Z,6.37
2022-09-09T20:43:59.694Z,5.78
2022-09-09T20:46:35.266Z,6.08
2022-09-09T20:49:09.023Z,5.80
2022-09-09T20:51:41.206Z,6.50
2022-09-09T20:54:16.116Z,6.45
2022-09-09T20:56:49.881Z,6.05
2022-09-09T20:59:24.322Z,6.47
2022-09-09T21:01:57.538Z,6.78
2022-09-09T21:04:29.874Z,5.92
2022-09-09T21:07:02.638Z,5.75
2022-09-09T21:09:34.657Z,5.83
2022-09-09T21:12:07.505Z,5.47
2022-09-09T21:14:39.452Z,5.60
2022-09-09T21:17:11.640Z,6.12
2022-09-09T21:19:43.841Z,6.22
2022-09-09T21:22:15.939Z,6.62
2022-09-09T21:24:47.921Z,6.78
2022-09-09T21:27:20.594Z,6.10
2022-09-09T21:29:52.968Z,6.12
2022-09-09T21:32:25.007Z,5.75
2022-09-09T21:34:57.451Z,5.85
2022-09-09T21:37:29.481Z,5.70
2022-09-09T21:40:01.930Z,6.97
2022-09-09T21:42:34.094Z,5.30
2022-09-09T21:45:06.854Z,5.33
2022-09-09T21:47:39.277Z,6.00
2022-09-09T21:50:11.481Z,6.37
2022-09-09T21:52:43.641Z,6.50
2022-09-09T21:55:15.606Z,5.90
2022-09-09T21:57:47.540Z,6.17
2022-09-09T22:00:19.527Z,5.97
2022-09-09T22:02:51.480Z,6.62
2022-09-09T22:05:23.411Z,7.05
2022-09-09T22:07:55.679Z,5.95
2022-09-09T22:10:27.700Z,6.72
2022-09-09T22:12:59.725Z,6.08
2022-09-09T22:15:32.721Z,6.87
2022-09-09T22:18:05.825Z,7.45
2022-09-09T22:20:43.068Z,7.65
2022-09-09T22:23:15.415Z,7.50
2022-09-09T22:25:49.620Z,7.75
2022-09-09T22:28:22.155Z,7.78
2022-09-09T22:30:54.615Z,6.65
2022-09-09T22:33:27.358Z,6.50
2022-09-09T22:35:59.520Z,6.40
2022-09-09T22:38:33.542Z,6.75
2022-09-09T22:41:07.565Z,6.12
2022-09-09T22:43:39.666Z,7.22
2022-09-09T22:46:11.877Z,6.62
2022-09-09T22:48:44.449Z,6.47
2022-09-09T22:51:17.324Z,5.72
2022-09-09T22:53:49.290Z,5.58
2022-09-09T22:56:21.637Z,6.22
2022-09-09T22:58:57.992Z,6.05
2022-09-09T23:01:30.669Z,6.58
2022-09-09T23:04:02.987Z,5.92
2022-09-09T23:06:35.305Z,6.22
2022-09-09T23:09:07.940Z,7.00
2022-09-09T23:11:40.922Z,6.72
2022-09-09T23:14:13.707Z,6.15
2022-09-09T23:16:46.984Z,6.90
2022-09-09T23:19:19.256Z,7.17
2022-09-09T23:21:51.425Z,5.50
2022-09-09T23:24:23.726Z,6.75
2022-09-09T23:26:56.056Z,5.62
2022-09-09T23:29:28.078Z,6.58
2022-09-09T23:32:00.214Z,6.90
2022-09-09T23:34:32.276Z,6.97
2022-09-09T23:37:04.264Z,6.97
2022-09-09T23:39:36.452Z,7.53
2022-09-09T23:42:09.714Z,5.85
2022-09-09T23:44:42.173Z,6.00
2022-09-09T23:47:14.667Z,6.87
2022-09-09T23:49:48.195Z,6.22
2022-09-09T23:52:20.310Z,6.17
2022-09-09T23:54:52.324Z,6.50
2022-09-09T23:57:24.488Z,6.55
2022-09-09T23:59:56.630Z,6.33
